Main page
METAR-TAF:

METAR-TAF

Airports :

Riverside Municipal Airport

Riverside, California, United States

latitude: 33-57-05N, longitude: 117-27-02W, elevation: 813 ft

Current weather observation

The report was made 19 minutes ago, at 20:53 UTC
Wind 9 mph from the West with gusts up to 22 mph
Temperature 97°F
Humidity 24%
Pressure 29.97 in. Hg
Visibility: 10 miles
Clear sky

METAR: KRAL 282053Z 28008G19KT 10SM CLR 36/12 A2997 RMK AO2 SLP130 T03560117 58015

Time: 14:12 (21:12 UTC)


TAF: missing

Weather observations and forecasts of more than 4000 airports (METAR and TAF reports).

The available stations are represented by yellow and red dots on the map.

Hover mouse over dot to see the name of the station.

Then click to see weather observations and forecasts.

To change the map : click on the green buttons with a black cross to zoom in, on the green button with a dash to zoom out, or on the green arrows for adjacent maps.


METAR-TAF: